sensor_id;sensor_type;location;lat;lon;timestamp;pressure;altitude;pressure_sealevel;temperature;humidity
55757;BME280;41676;44.610;44.078;2023-04-29T00:02:15;99512.66;;;12.75;100.00
55757;BME280;41676;44.610;44.078;2023-04-29T00:07:16;99516.56;;;12.79;100.00
55757;BME280;41676;44.610;44.078;2023-04-29T00:12:16;99426.91;;;12.31;100.00
55757;BME280;41676;44.610;44.078;2023-04-29T00:17:17;99434.31;;;12.56;100.00
55757;BME280;41676;44.610;44.078;2023-04-29T00:22:18;99481.13;;;12.98;100.00
55757;BME280;41676;44.610;44.078;2023-04-29T00:27:20;99416.09;;;12.53;100.00
55757;BME280;41676;44.610;44.078;2023-04-29T00:32:21;99509.59;;;12.98;100.00
55757;BME280;41676;44.610;44.078;2023-04-29T00:37:22;99517.41;;;13.06;100.00
55757;BME280;41676;44.610;44.078;2023-04-29T00:42:24;99527.66;;;13.09;100.00
55757;BME280;41676;44.610;44.078;2023-04-29T00:47:25;99546.97;;;13.11;100.00
55757;BME280;41676;44.610;44.078;2023-04-29T00:52:29;99522.34;;;12.89;100.00
55757;BME280;41676;44.610;44.078;2023-04-29T00:57:32;99511.84;;;12.94;100.00
55757;BME280;41676;44.610;44.078;2023-04-29T01:02:33;99506.53;;;12.94;100.00
55757;BME280;41676;44.610;44.078;2023-04-29T01:22:55;99505.50;;;12.75;100.00
55757;BME280;41676;44.610;44.078;2023-04-29T01:33:10;99459.91;;;12.44;100.00
55757;BME280;41676;44.610;44.078;2023-04-29T01:38:35;99516.38;;;12.81;100.00
55757;BME280;41676;44.610;44.078;2023-04-29T01:43:37;99451.28;;;12.22;100.00
55757;BME280;41676;44.610;44.078;2023-04-29T01:48:39;99498.25;;;12.49;100.00
55757;BME280;41676;44.610;44.078;2023-04-29T01:53:40;99537.63;;;12.54;100.00
55757;BME280;41676;44.610;44.078;2023-04-29T01:58:41;99528.38;;;12.50;100.00
55757;BME280;41676;44.610;44.078;2023-04-29T02:03:41;99519.16;;;12.46;100.00
55757;BME280;41676;44.610;44.078;2023-04-29T02:08:42;99532.06;;;12.49;100.00
55757;BME280;41676;44.610;44.078;2023-04-29T02:13:43;99508.41;;;12.19;100.00
55757;BME280;41676;44.610;44.078;2023-04-29T02:18:44;99554.75;;;12.38;100.00
55757;BME280;41676;44.610;44.078;2023-04-29T02:23:45;99556.19;;;12.34;100.00
55757;BME280;41676;44.610;44.078;2023-04-29T02:28:46;99550.59;;;12.22;100.00
55757;BME280;41676;44.610;44.078;2023-04-29T02:33:47;99563.53;;;12.25;100.00
55757;BME280;41676;44.610;44.078;2023-04-29T02:38:48;99570.56;;;12.40;100.00
55757;BME280;41676;44.610;44.078;2023-04-29T02:43:50;99544.75;;;12.40;100.00
55757;BME280;41676;44.610;44.078;2023-04-29T03:05:13;99592.50;;;13.16;100.00
55757;BME280;41676;44.610;44.078;2023-04-29T03:10:14;99590.47;;;13.25;100.00
55757;BME280;41676;44.610;44.078;2023-04-29T03:15:15;99593.78;;;13.40;100.00
55757;BME280;41676;44.610;44.078;2023-04-29T03:20:16;99597.50;;;13.53;100.00
55757;BME280;41676;44.610;44.078;2023-04-29T03:25:17;99594.59;;;13.67;100.00
55757;BME280;41676;44.610;44.078;2023-04-29T03:30:18;99608.34;;;13.78;100.00
55757;BME280;41676;44.610;44.078;2023-04-29T03:35:19;99621.25;;;13.87;100.00
55757;BME280;41676;44.610;44.078;2023-04-29T03:40:20;99611.84;;;13.91;100.00
55757;BME280;41676;44.610;44.078;2023-04-29T03:45:21;99556.00;;;13.70;100.00
55757;BME280;41676;44.610;44.078;2023-04-29T03:50:22;99603.34;;;14.14;100.00
55757;BME280;41676;44.610;44.078;2023-04-29T03:55:23;99635.53;;;14.46;100.00
55757;BME280;41676;44.610;44.078;2023-04-29T04:00:24;99632.66;;;14.54;100.00
55757;BME280;41676;44.610;44.078;2023-04-29T04:05:25;99626.91;;;14.57;100.00
55757;BME280;41676;44.610;44.078;2023-04-29T04:10:26;99637.75;;;14.69;100.00
55757;BME280;41676;44.610;44.078;2023-04-29T04:15:27;99639.16;;;14.78;100.00
55757;BME280;41676;44.610;44.078;2023-04-29T04:20:28;99571.78;;;14.56;100.00
55757;BME280;41676;44.610;44.078;2023-04-29T04:25:29;99608.56;;;15.06;100.00
55757;BME280;41676;44.610;44.078;2023-04-29T04:30:30;99600.63;;;15.24;100.00
55757;BME280;41676;44.610;44.078;2023-04-29T04:35:31;99605.66;;;15.71;100.00
55757;BME280;41676;44.610;44.078;2023-04-29T04:40:31;99632.22;;;16.34;99.30
55757;BME280;41676;44.610;44.078;2023-04-29T04:45:32;99646.66;;;16.70;97.68
55757;BME280;41676;44.610;44.078;2023-04-29T04:50:33;99631.31;;;16.77;96.86
55757;BME280;41676;44.610;44.078;2023-04-29T04:55:34;99608.00;;;16.78;96.76
55757;BME280;41676;44.610;44.078;2023-04-29T05:00:35;99586.09;;;16.81;96.60
55757;BME280;41676;44.610;44.078;2023-04-29T05:05:36;99620.66;;;17.31;95.70
55757;BME280;41676;44.610;44.078;2023-04-29T05:10:37;99615.41;;;17.78;94.36
55757;BME280;41676;44.610;44.078;2023-04-29T05:15:38;99584.13;;;17.84;93.55
55757;BME280;41676;44.610;44.078;2023-04-29T05:20:39;99610.50;;;18.10;92.96
55757;BME280;41676;44.610;44.078;2023-04-29T05:25:40;99610.38;;;18.29;92.08
55757;BME280;41676;44.610;44.078;2023-04-29T05:30:40;99619.41;;;18.51;91.41
55757;BME280;41676;44.610;44.078;2023-04-29T05:35:41;99604.81;;;18.87;89.80
55757;BME280;41676;44.610;44.078;2023-04-29T05:40:42;99563.44;;;19.05;88.50
55757;BME280;41676;44.610;44.078;2023-04-29T05:45:45;99540.53;;;19.36;86.09
55757;BME280;41676;44.610;44.078;2023-04-29T05:50:46;99557.31;;;19.94;84.99
55757;BME280;41676;44.610;44.078;2023-04-29T05:55:47;99545.59;;;20.05;84.06
55757;BME280;41676;44.610;44.078;2023-04-29T06:00:50;99542.91;;;20.05;83.85
55757;BME280;41676;44.610;44.078;2023-04-29T06:05:51;99541.91;;;19.90;83.81
55757;BME280;41676;44.610;44.078;2023-04-29T06:10:52;99496.44;;;19.59;83.54
55757;BME280;41676;44.610;44.078;2023-04-29T06:15:53;99563.03;;;19.98;83.95
55757;BME280;41676;44.610;44.078;2023-04-29T06:20:54;99541.94;;;19.95;84.07
55757;BME280;41676;44.610;44.078;2023-04-29T06:25:55;99528.81;;;19.98;84.00
55757;BME280;41676;44.610;44.078;2023-04-29T06:30:57;99543.09;;;20.21;83.39
55757;BME280;41676;44.610;44.078;2023-04-29T06:35:57;99479.34;;;19.88;82.94
55757;BME280;41676;44.610;44.078;2023-04-29T06:40:58;99514.78;;;20.45;82.26
55757;BME280;41676;44.610;44.078;2023-04-29T06:46:02;99525.19;;;20.54;81.14
55757;BME280;41676;44.610;44.078;2023-04-29T06:51:03;99521.97;;;20.57;80.66
55757;BME280;41676;44.610;44.078;2023-04-29T06:56:04;99510.16;;;20.63;79.31
55757;BME280;41676;44.610;44.078;2023-04-29T07:01:06;99523.59;;;20.85;79.61
55757;BME280;41676;44.610;44.078;2023-04-29T07:06:07;99513.16;;;20.93;78.62
55757;BME280;41676;44.610;44.078;2023-04-29T07:11:08;99510.88;;;20.80;77.83
55757;BME280;41676;44.610;44.078;2023-04-29T07:16:16;99501.75;;;20.59;76.35
55757;BME280;41676;44.610;44.078;2023-04-29T07:21:21;99532.38;;;20.97;76.84
55757;BME280;41676;44.610;44.078;2023-04-29T07:26:22;99524.69;;;21.16;76.32
55757;BME280;41676;44.610;44.078;2023-04-29T07:31:22;99516.03;;;21.14;75.62
55757;BME280;41676;44.610;44.078;2023-04-29T07:36:23;99497.63;;;21.11;75.24
55757;BME280;41676;44.610;44.078;2023-04-29T07:41:24;99519.00;;;21.12;75.52
55757;BME280;41676;44.610;44.078;2023-04-29T07:46:25;99456.28;;;20.73;75.13
55757;BME280;41676;44.610;44.078;2023-04-29T07:51:26;99521.44;;;21.14;75.58
55757;BME280;41676;44.610;44.078;2023-04-29T07:56:28;99466.66;;;20.86;75.69
55757;BME280;41676;44.610;44.078;2023-04-29T08:01:29;99506.88;;;21.52;74.20
55757;BME280;41676;44.610;44.078;2023-04-29T08:06:30;99506.25;;;21.82;73.36
55757;BME280;41676;44.610;44.078;2023-04-29T08:11:31;99444.25;;;21.65;72.77
55757;BME280;41676;44.610;44.078;2023-04-29T08:16:32;99490.25;;;22.33;71.51
55757;BME280;41676;44.610;44.078;2023-04-29T08:21:33;99479.53;;;22.74;70.38
55757;BME280;41676;44.610;44.078;2023-04-29T08:26:34;99473.56;;;22.88;69.25
55757;BME280;41676;44.610;44.078;2023-04-29T08:31:34;99451.91;;;22.88;69.50
55757;BME280;41676;44.610;44.078;2023-04-29T08:36:35;99395.03;;;22.57;68.67
55757;BME280;41676;44.610;44.078;2023-04-29T08:41:38;99418.88;;;22.65;68.38
55757;BME280;41676;44.610;44.078;2023-04-29T08:46:38;99417.25;;;23.10;68.03
55757;BME280;41676;44.610;44.078;2023-04-29T08:51:40;99383.31;;;23.49;65.19
55757;BME280;41676;44.610;44.078;2023-04-29T08:56:44;99397.53;;;23.85;64.55
55757;BME280;41676;44.610;44.078;2023-04-29T09:01:46;99377.94;;;23.98;64.33
55757;BME280;41676;44.610;44.078;2023-04-29T09:06:51;99368.66;;;24.09;62.72
55757;BME280;41676;44.610;44.078;2023-04-29T09:11:55;99376.56;;;24.45;61.97
55757;BME280;41676;44.610;44.078;2023-04-29T09:16:56;99374.66;;;24.41;61.28
55757;BME280;41676;44.610;44.078;2023-04-29T09:21:57;99369.13;;;24.22;61.62
55757;BME280;41676;44.610;44.078;2023-04-29T09:26:59;99285.38;;;24.44;59.85
55757;BME280;41676;44.610;44.078;2023-04-29T09:31:59;99335.00;;;25.32;58.99
55757;BME280;41676;44.610;44.078;2023-04-29T09:37:00;99347.72;;;25.37;57.31
55757;BME280;41676;44.610;44.078;2023-04-29T09:42:01;99335.22;;;25.12;57.38
55757;BME280;41676;44.610;44.078;2023-04-29T09:47:07;99369.66;;;24.92;57.29
55757;BME280;41676;44.610;44.078;2023-04-29T09:52:13;99361.44;;;24.97;57.98
55757;BME280;41676;44.610;44.078;2023-04-29T09:57:15;99353.28;;;24.97;57.46
55757;BME280;41676;44.610;44.078;2023-04-29T10:02:18;99341.00;;;25.05;56.93
55757;BME280;41676;44.610;44.078;2023-04-29T10:07:19;99332.47;;;25.17;56.92
55757;BME280;41676;44.610;44.078;2023-04-29T10:12:20;99255.38;;;24.83;56.43
55757;BME280;41676;44.610;44.078;2023-04-29T10:17:26;99332.88;;;25.29;55.92
55757;BME280;41676;44.610;44.078;2023-04-29T10:22:47;99264.38;;;24.79;55.83
55757;BME280;41676;44.610;44.078;2023-04-29T10:27:49;99340.78;;;25.01;56.61
55757;BME280;41676;44.610;44.078;2023-04-29T10:32:53;99327.38;;;24.52;57.22
55757;BME280;41676;44.610;44.078;2023-04-29T10:37:55;99341.91;;;24.66;57.39
55757;BME280;41676;44.610;44.078;2023-04-29T10:42:59;99294.09;;;24.36;57.00
55757;BME280;41676;44.610;44.078;2023-04-29T10:53:02;99270.22;;;24.38;57.40
55757;BME280;41676;44.610;44.078;2023-04-29T10:58:04;99352.97;;;25.04;56.84
55757;BME280;41676;44.610;44.078;2023-04-29T11:03:05;99358.56;;;25.13;57.23
55757;BME280;41676;44.610;44.078;2023-04-29T11:13:24;99274.69;;;24.53;55.58
55757;BME280;41676;44.610;44.078;2023-04-29T11:18:27;99313.47;;;25.12;55.66
55757;BME280;41676;44.610;44.078;2023-04-29T11:23:28;99317.88;;;25.56;55.30
55757;BME280;41676;44.610;44.078;2023-04-29T11:28:30;99337.34;;;25.63;54.90
55757;BME280;41676;44.610;44.078;2023-04-29T11:33:31;99347.16;;;25.64;54.52
55757;BME280;41676;44.610;44.078;2023-04-29T11:38:33;99331.53;;;25.50;54.92
55757;BME280;41676;44.610;44.078;2023-04-29T11:43:35;99346.16;;;25.31;54.28
55757;BME280;41676;44.610;44.078;2023-04-29T11:48:45;99340.97;;;25.58;54.52
55757;BME280;41676;44.610;44.078;2023-04-29T11:53:50;99328.88;;;25.21;55.57
55757;BME280;41676;44.610;44.078;2023-04-29T11:58:57;99314.06;;;25.09;55.25
55757;BME280;41676;44.610;44.078;2023-04-29T12:03:59;99300.25;;;25.05;55.40
55757;BME280;41676;44.610;44.078;2023-04-29T12:09:00;99276.19;;;24.93;54.89
55757;BME280;41676;44.610;44.078;2023-04-29T12:14:01;99274.50;;;24.97;55.30
55757;BME280;41676;44.610;44.078;2023-04-29T12:19:05;99298.91;;;25.02;55.17
55757;BME280;41676;44.610;44.078;2023-04-29T12:24:08;99310.88;;;25.01;54.93
55757;BME280;41676;44.610;44.078;2023-04-29T12:29:09;99304.16;;;24.94;55.60
55757;BME280;41676;44.610;44.078;2023-04-29T12:34:10;99297.69;;;24.90;54.94
55757;BME280;41676;44.610;44.078;2023-04-29T12:39:11;99312.78;;;24.77;54.95
55757;BME280;41676;44.610;44.078;2023-04-29T12:44:13;99300.31;;;24.71;55.83
55757;BME280;41676;44.610;44.078;2023-04-29T12:49:15;99300.19;;;24.57;56.00
55757;BME280;41676;44.610;44.078;2023-04-29T12:54:18;99301.69;;;24.39;55.80
55757;BME280;41676;44.610;44.078;2023-04-29T12:59:19;99319.56;;;24.45;56.23
55757;BME280;41676;44.610;44.078;2023-04-29T13:04:20;99310.94;;;24.38;55.72
55757;BME280;41676;44.610;44.078;2023-04-29T13:09:21;99314.94;;;24.46;56.22
55757;BME280;41676;44.610;44.078;2023-04-29T13:14:21;99336.88;;;24.54;55.36
55757;BME280;41676;44.610;44.078;2023-04-29T13:19:22;99346.72;;;24.45;56.07
55757;BME280;41676;44.610;44.078;2023-04-29T13:24:23;99284.41;;;23.90;55.39
55757;BME280;41676;44.610;44.078;2023-04-29T13:29:24;99344.72;;;24.17;56.14
55757;BME280;41676;44.610;44.078;2023-04-29T13:34:26;99327.41;;;24.07;56.20
55757;BME280;41676;44.610;44.078;2023-04-29T13:39:27;99333.38;;;24.09;56.05
55757;BME280;41676;44.610;44.078;2023-04-29T13:44:27;99201.59;;;23.19;55.98
55757;BME280;41676;44.610;44.078;2023-04-29T13:49:28;99353.00;;;23.96;56.95
55757;BME280;41676;44.610;44.078;2023-04-29T13:54:29;99336.69;;;23.46;59.99
55757;BME280;41676;44.610;44.078;2023-04-29T13:59:31;99339.50;;;23.11;61.69
55757;BME280;41676;44.610;44.078;2023-04-29T14:04:32;99308.94;;;22.64;63.08
55757;BME280;41676;44.610;44.078;2023-04-29T14:09:33;99333.63;;;22.47;63.84
55757;BME280;41676;44.610;44.078;2023-04-29T14:14:34;99319.53;;;22.20;64.55
55757;BME280;41676;44.610;44.078;2023-04-29T14:19:35;99307.56;;;22.00;65.42
55757;BME280;41676;44.610;44.078;2023-04-29T14:24:35;99323.78;;;21.85;66.41
55757;BME280;41676;44.610;44.078;2023-04-29T14:29:38;99325.63;;;21.64;66.67
55757;BME280;41676;44.610;44.078;2023-04-29T14:34:39;99354.22;;;21.55;67.26
55757;BME280;41676;44.610;44.078;2023-04-29T14:39:40;99363.88;;;21.40;67.54
55757;BME280;41676;44.610;44.078;2023-04-29T14:44:40;99306.34;;;20.92;67.51
55757;BME280;41676;44.610;44.078;2023-04-29T14:49:41;99308.16;;;20.77;67.77
55757;BME280;41676;44.610;44.078;2023-04-29T14:54:42;99391.50;;;21.10;67.86
55757;BME280;41676;44.610;44.078;2023-04-29T14:59:43;99394.97;;;21.01;67.49
55757;BME280;41676;44.610;44.078;2023-04-29T15:04:44;99381.31;;;20.80;67.88
55757;BME280;41676;44.610;44.078;2023-04-29T15:09:45;99386.09;;;20.73;69.31
55757;BME280;41676;44.610;44.078;2023-04-29T15:14:46;99422.56;;;20.48;70.57
55757;BME280;41676;44.610;44.078;2023-04-29T15:19:47;99425.31;;;19.77;71.07
55757;BME280;41676;44.610;44.078;2023-04-29T15:24:48;99317.53;;;18.27;72.52
55757;BME280;41676;44.610;44.078;2023-04-29T15:29:51;99293.06;;;17.78;72.33
55757;BME280;41676;44.610;44.078;2023-04-29T15:34:54;99441.09;;;18.34;71.81
55757;BME280;41676;44.610;44.078;2023-04-29T15:39:57;99440.13;;;18.11;71.53
55757;BME280;41676;44.610;44.078;2023-04-29T15:44:58;99445.53;;;17.99;71.75
55757;BME280;41676;44.610;44.078;2023-04-29T15:49:58;99462.16;;;17.85;72.29
55757;BME280;41676;44.610;44.078;2023-04-29T15:54:59;99456.66;;;17.68;72.72
55757;BME280;41676;44.610;44.078;2023-04-29T16:00:00;99461.69;;;17.64;72.86
55757;BME280;41676;44.610;44.078;2023-04-29T16:05:01;99450.88;;;17.47;72.92
55757;BME280;41676;44.610;44.078;2023-04-29T16:28:48;99462.53;;;17.53;72.16
55757;BME280;41676;44.610;44.078;2023-04-29T16:33:49;99477.34;;;17.55;71.54
55757;BME280;41676;44.610;44.078;2023-04-29T16:51:24;99482.72;;;17.55;70.70
55757;BME280;41676;44.610;44.078;2023-04-29T16:56:26;99507.34;;;17.64;70.33
55757;BME280;41676;44.610;44.078;2023-04-29T17:01:26;99504.19;;;17.55;71.03
55757;BME280;41676;44.610;44.078;2023-04-29T17:06:27;99512.38;;;17.49;71.23
55757;BME280;41676;44.610;44.078;2023-04-29T17:11:28;99494.16;;;17.39;71.63
55757;BME280;41676;44.610;44.078;2023-04-29T17:16:29;99417.03;;;16.87;72.37
55757;BME280;41676;44.610;44.078;2023-04-29T17:21:30;99465.31;;;17.11;73.29
55757;BME280;41676;44.610;44.078;2023-04-29T17:26:31;99484.81;;;17.06;73.37
55757;BME280;41676;44.610;44.078;2023-04-29T17:31:32;99440.28;;;16.75;73.39
55757;BME280;41676;44.610;44.078;2023-04-29T17:36:45;99505.13;;;17.14;73.67
55757;BME280;41676;44.610;44.078;2023-04-29T17:41:46;99521.09;;;17.09;74.17
55757;BME280;41676;44.610;44.078;2023-04-29T17:46:47;99586.06;;;16.99;74.64
55757;BME280;41676;44.610;44.078;2023-04-29T17:51:48;99583.34;;;16.87;74.73
55757;BME280;41676;44.610;44.078;2023-04-29T17:56:49;99579.94;;;16.92;74.87
55757;BME280;41676;44.610;44.078;2023-04-29T18:01:50;99555.25;;;17.02;74.54
55757;BME280;41676;44.610;44.078;2023-04-29T18:06:50;99564.44;;;16.94;75.11
55757;BME280;41676;44.610;44.078;2023-04-29T18:11:51;99531.66;;;16.92;74.98
55757;BME280;41676;44.610;44.078;2023-04-29T18:16:52;99525.94;;;16.88;75.24
55757;BME280;41676;44.610;44.078;2023-04-29T18:21:53;99460.28;;;16.49;75.17
55757;BME280;41676;44.610;44.078;2023-04-29T18:26:58;99499.00;;;16.65;76.11
55757;BME280;41676;44.610;44.078;2023-04-29T18:31:59;99442.69;;;16.23;76.32
55757;BME280;41676;44.610;44.078;2023-04-29T18:37:00;99502.56;;;16.47;76.75
55757;BME280;41676;44.610;44.078;2023-04-29T18:42:01;99513.19;;;16.54;77.00
55757;BME280;41676;44.610;44.078;2023-04-29T18:47:03;99546.72;;;16.44;77.60
55757;BME280;41676;44.610;44.078;2023-04-29T18:52:04;99544.34;;;16.18;77.90
55757;BME280;41676;44.610;44.078;2023-04-29T18:57:05;99595.88;;;16.38;77.62
55757;BME280;41676;44.610;44.078;2023-04-29T19:02:06;99528.72;;;16.15;77.43
55757;BME280;41676;44.610;44.078;2023-04-29T19:07:07;99514.06;;;16.17;77.35
55757;BME280;41676;44.610;44.078;2023-04-29T19:12:08;99489.69;;;15.89;77.27
55757;BME280;41676;44.610;44.078;2023-04-29T19:17:10;99469.63;;;15.55;77.71
55757;BME280;41676;44.610;44.078;2023-04-29T19:22:11;99593.47;;;16.30;78.23
55757;BME280;41676;44.610;44.078;2023-04-29T19:27:12;99579.44;;;16.16;79.31
55757;BME280;41676;44.610;44.078;2023-04-29T19:32:13;99578.16;;;16.01;80.09
55757;BME280;41676;44.610;44.078;2023-04-29T19:37:14;99457.78;;;15.00;80.48
55757;BME280;41676;44.610;44.078;2023-04-29T19:42:14;99582.56;;;15.70;80.93
55757;BME280;41676;44.610;44.078;2023-04-29T19:47:15;99566.16;;;15.60;81.19
55757;BME280;41676;44.610;44.078;2023-04-29T19:52:16;99554.91;;;15.51;81.25
55757;BME280;41676;44.610;44.078;2023-04-29T19:57:17;99529.72;;;15.34;81.44
55757;BME280;41676;44.610;44.078;2023-04-29T20:02:18;99492.94;;;15.29;82.28
55757;BME280;41676;44.610;44.078;2023-04-29T20:07:19;99501.00;;;15.22;83.31
55757;BME280;41676;44.610;44.078;2023-04-29T20:12:19;99537.53;;;15.10;84.29
55757;BME280;41676;44.610;44.078;2023-04-29T20:17:20;99603.06;;;14.94;85.88
55757;BME280;41676;44.610;44.078;2023-04-29T20:22:21;99612.28;;;14.98;86.32
55757;BME280;41676;44.610;44.078;2023-04-29T20:27:22;99617.25;;;14.95;86.49
55757;BME280;41676;44.610;44.078;2023-04-29T20:32:23;99609.47;;;14.93;86.67
55757;BME280;41676;44.610;44.078;2023-04-29T20:37:23;99606.78;;;14.87;87.17
55757;BME280;41676;44.610;44.078;2023-04-29T20:42:25;99577.44;;;14.80;87.54
55757;BME280;41676;44.610;44.078;2023-04-29T20:47:26;99615.06;;;14.85;87.37
55757;BME280;41676;44.610;44.078;2023-04-29T20:52:27;99598.66;;;14.68;87.60
55757;BME280;41676;44.610;44.078;2023-04-29T20:57:28;99611.75;;;14.83;87.67
55757;BME280;41676;44.610;44.078;2023-04-29T21:02:29;99598.22;;;14.78;87.46
55757;BME280;41676;44.610;44.078;2023-04-29T21:07:30;99594.78;;;14.64;87.44
55757;BME280;41676;44.610;44.078;2023-04-29T21:12:31;99610.38;;;14.74;87.57
55757;BME280;41676;44.610;44.078;2023-04-29T21:17:31;99668.19;;;14.75;87.57
55757;BME280;41676;44.610;44.078;2023-04-29T21:22:32;99659.72;;;14.78;87.23
55757;BME280;41676;44.610;44.078;2023-04-29T21:27:33;99647.78;;;14.74;87.12
55757;BME280;41676;44.610;44.078;2023-04-29T21:32:35;99645.13;;;14.74;86.96
55757;BME280;41676;44.610;44.078;2023-04-29T21:37:36;99622.09;;;14.73;87.23
55757;BME280;41676;44.610;44.078;2023-04-29T21:42:36;99615.72;;;14.74;87.18
55757;BME280;41676;44.610;44.078;2023-04-29T21:47:37;99567.44;;;14.62;87.41
55757;BME280;41676;44.610;44.078;2023-04-29T21:52:38;99526.31;;;14.18;87.75
55757;BME280;41676;44.610;44.078;2023-04-29T21:57:39;99515.22;;;14.14;87.46
55757;BME280;41676;44.610;44.078;2023-04-29T22:02:40;99566.44;;;14.50;87.13
55757;BME280;41676;44.610;44.078;2023-04-29T22:07:42;99564.00;;;14.48;86.94
55757;BME280;41676;44.610;44.078;2023-04-29T22:12:43;99590.91;;;14.53;86.25
55757;BME280;41676;44.610;44.078;2023-04-29T22:17:44;99535.16;;;14.12;85.60
55757;BME280;41676;44.610;44.078;2023-04-29T22:22:45;99612.53;;;14.52;84.72
55757;BME280;41676;44.610;44.078;2023-04-29T22:27:47;99582.34;;;14.31;84.11
55757;BME280;41676;44.610;44.078;2023-04-29T22:32:48;99607.59;;;14.42;82.89
55757;BME280;41676;44.610;44.078;2023-04-29T22:37:48;99618.72;;;14.32;82.49
55757;BME280;41676;44.610;44.078;2023-04-29T22:42:50;99624.09;;;14.26;82.29
55757;BME280;41676;44.610;44.078;2023-04-29T22:47:50;99637.84;;;14.23;82.41
55757;BME280;41676;44.610;44.078;2023-04-29T22:52:51;99635.59;;;14.20;82.21
55757;BME280;41676;44.610;44.078;2023-04-29T22:57:52;99619.19;;;14.03;81.92
55757;BME280;41676;44.610;44.078;2023-04-29T23:02:53;99579.19;;;13.83;82.03
55757;BME280;41676;44.610;44.078;2023-04-29T23:07:54;99639.31;;;14.19;81.88
55757;BME280;41676;44.610;44.078;2023-04-29T23:12:55;99659.03;;;14.18;82.01
55757;BME280;41676;44.610;44.078;2023-04-29T23:17:56;99583.53;;;13.70;82.14
55757;BME280;41676;44.610;44.078;2023-04-29T23:22:57;99649.78;;;14.13;82.15
55757;BME280;41676;44.610;44.078;2023-04-29T23:27:58;99657.41;;;14.03;82.40
55757;BME280;41676;44.610;44.078;2023-04-29T23:32:58;99552.50;;;13.43;82.19
55757;BME280;41676;44.610;44.078;2023-04-29T23:37:59;99662.34;;;14.06;82.33
55757;BME280;41676;44.610;44.078;2023-04-29T23:43:00;99554.78;;;13.53;82.17
55757;BME280;41676;44.610;44.078;2023-04-29T23:48:01;99628.88;;;13.97;82.63
55757;BME280;41676;44.610;44.078;2023-04-29T23:53:02;99625.56;;;14.02;82.46
55757;BME280;41676;44.610;44.078;2023-04-29T23:58:03;99630.91;;;14.02;82.83
